sensor_id;sensor_type;location;lat;lon;timestamp;temperature;humidity
14357;DHT22;7262;48.764;9.166;2022-07-05T00:01:46;17.80;99.90
14357;DHT22;7262;48.764;9.166;2022-07-05T00:04:13;17.80;99.90
14357;DHT22;7262;48.764;9.166;2022-07-05T00:06:40;17.80;99.90
14357;DHT22;7262;48.764;9.166;2022-07-05T00:09:28;17.70;99.90
14357;DHT22;7262;48.764;9.166;2022-07-05T00:11:55;17.70;99.90
14357;DHT22;7262;48.764;9.166;2022-07-05T00:14:22;17.60;99.90
14357;DHT22;7262;48.764;9.166;2022-07-05T00:16:48;17.60;99.90
14357;DHT22;7262;48.764;9.166;2022-07-05T00:19:15;17.50;99.90
14357;DHT22;7262;48.764;9.166;2022-07-05T00:21:42;17.50;99.90
14357;DHT22;7262;48.764;9.166;2022-07-05T00:24:09;17.40;99.90
14357;DHT22;7262;48.764;9.166;2022-07-05T00:26:37;17.40;99.90
14357;DHT22;7262;48.764;9.166;2022-07-05T00:29:04;17.40;99.90
14357;DHT22;7262;48.764;9.166;2022-07-05T00:31:31;17.40;99.90
14357;DHT22;7262;48.764;9.166;2022-07-05T00:33:57;17.30;99.90
14357;DHT22;7262;48.764;9.166;2022-07-05T00:36:24;17.30;99.90
14357;DHT22;7262;48.764;9.166;2022-07-05T00:38:51;17.30;99.90
14357;DHT22;7262;48.764;9.166;2022-07-05T00:41:17;17.30;99.90
14357;DHT22;7262;48.764;9.166;2022-07-05T00:43:52;17.30;99.90
14357;DHT22;7262;48.764;9.166;2022-07-05T00:46:19;17.30;99.90
14357;DHT22;7262;48.764;9.166;2022-07-05T00:48:45;17.20;99.90
14357;DHT22;7262;48.764;9.166;2022-07-05T00:51:12;17.10;99.90
14357;DHT22;7262;48.764;9.166;2022-07-05T00:53:41;17.10;99.90
14357;DHT22;7262;48.764;9.166;2022-07-05T00:56:08;17.10;99.90
14357;DHT22;7262;48.764;9.166;2022-07-05T00:58:37;17.10;99.90
14357;DHT22;7262;48.764;9.166;2022-07-05T01:01:06;17.10;99.90
14357;DHT22;7262;48.764;9.166;2022-07-05T01:03:33;17.10;99.90
14357;DHT22;7262;48.764;9.166;2022-07-05T01:06:00;17.00;99.90
14357;DHT22;7262;48.764;9.166;2022-07-05T01:08:27;17.00;99.90
14357;DHT22;7262;48.764;9.166;2022-07-05T01:10:54;16.90;99.90
14357;DHT22;7262;48.764;9.166;2022-07-05T01:13:21;16.80;99.90
14357;DHT22;7262;48.764;9.166;2022-07-05T01:15:48;16.80;99.90
14357;DHT22;7262;48.764;9.166;2022-07-05T01:18:16;16.80;99.90
14357;DHT22;7262;48.764;9.166;2022-07-05T01:20:43;16.80;99.90
14357;DHT22;7262;48.764;9.166;2022-07-05T01:23:11;16.70;99.90
14357;DHT22;7262;48.764;9.166;2022-07-05T01:25:38;16.60;99.90
14357;DHT22;7262;48.764;9.166;2022-07-05T01:28:05;16.50;99.90
14357;DHT22;7262;48.764;9.166;2022-07-05T01:30:32;16.50;99.90
14357;DHT22;7262;48.764;9.166;2022-07-05T01:33:00;16.50;99.90
14357;DHT22;7262;48.764;9.166;2022-07-05T01:35:27;16.50;99.90
14357;DHT22;7262;48.764;9.166;2022-07-05T01:37:54;16.50;99.90
14357;DHT22;7262;48.764;9.166;2022-07-05T01:40:22;16.50;99.90
14357;DHT22;7262;48.764;9.166;2022-07-05T01:42:49;16.50;99.90
14357;DHT22;7262;48.764;9.166;2022-07-05T01:45:17;16.50;99.90
14357;DHT22;7262;48.764;9.166;2022-07-05T01:48:05;16.50;99.90
14357;DHT22;7262;48.764;9.166;2022-07-05T01:50:33;16.40;99.90
14357;DHT22;7262;48.764;9.166;2022-07-05T01:53:01;16.50;99.90
14357;DHT22;7262;48.764;9.166;2022-07-05T01:55:31;16.40;99.90
14357;DHT22;7262;48.764;9.166;2022-07-05T01:57:58;16.40;99.90
14357;DHT22;7262;48.764;9.166;2022-07-05T02:00:25;16.40;99.90
14357;DHT22;7262;48.764;9.166;2022-07-05T02:02:52;16.40;99.90
14357;DHT22;7262;48.764;9.166;2022-07-05T02:05:20;16.30;99.90
14357;DHT22;7262;48.764;9.166;2022-07-05T02:07:47;16.30;99.90
14357;DHT22;7262;48.764;9.166;2022-07-05T02:10:14;16.20;99.90
14357;DHT22;7262;48.764;9.166;2022-07-05T02:12:42;16.20;99.90
14357;DHT22;7262;48.764;9.166;2022-07-05T02:15:09;16.20;99.90
14357;DHT22;7262;48.764;9.166;2022-07-05T02:17:36;16.20;99.90
14357;DHT22;7262;48.764;9.166;2022-07-05T02:20:04;16.20;99.90
14357;DHT22;7262;48.764;9.166;2022-07-05T02:22:31;16.10;99.90
14357;DHT22;7262;48.764;9.166;2022-07-05T02:24:58;16.00;99.90
14357;DHT22;7262;48.764;9.166;2022-07-05T02:27:25;16.00;99.90
14357;DHT22;7262;48.764;9.166;2022-07-05T02:29:54;16.00;99.90
14357;DHT22;7262;48.764;9.166;2022-07-05T02:32:21;16.00;99.90
14357;DHT22;7262;48.764;9.166;2022-07-05T02:34:48;16.00;99.90
14357;DHT22;7262;48.764;9.166;2022-07-05T02:37:15;16.00;99.90
14357;DHT22;7262;48.764;9.166;2022-07-05T02:39:41;15.90;99.90
14357;DHT22;7262;48.764;9.166;2022-07-05T02:42:08;15.90;99.90
14357;DHT22;7262;48.764;9.166;2022-07-05T02:44:35;15.90;99.90
14357;DHT22;7262;48.764;9.166;2022-07-05T02:47:03;15.80;99.90
14357;DHT22;7262;48.764;9.166;2022-07-05T02:49:30;15.80;99.90
14357;DHT22;7262;48.764;9.166;2022-07-05T02:51:57;15.70;99.90
14357;DHT22;7262;48.764;9.166;2022-07-05T02:54:23;15.70;99.90
14357;DHT22;7262;48.764;9.166;2022-07-05T02:56:50;15.70;99.90
14357;DHT22;7262;48.764;9.166;2022-07-05T02:59:18;15.80;99.90
14357;DHT22;7262;48.764;9.166;2022-07-05T03:01:45;15.70;99.90
14357;DHT22;7262;48.764;9.166;2022-07-05T03:04:13;15.70;99.90
14357;DHT22;7262;48.764;9.166;2022-07-05T03:06:40;15.60;99.90
14357;DHT22;7262;48.764;9.166;2022-07-05T03:09:07;15.60;99.90
14357;DHT22;7262;48.764;9.166;2022-07-05T03:11:34;15.60;99.90
14357;DHT22;7262;48.764;9.166;2022-07-05T03:14:01;15.50;99.90
14357;DHT22;7262;48.764;9.166;2022-07-05T03:16:28;15.50;99.90
14357;DHT22;7262;48.764;9.166;2022-07-05T03:18:54;15.50;99.90
14357;DHT22;7262;48.764;9.166;2022-07-05T03:21:22;15.50;99.90
14357;DHT22;7262;48.764;9.166;2022-07-05T03:23:49;15.50;99.90
14357;DHT22;7262;48.764;9.166;2022-07-05T03:26:16;15.50;99.90
14357;DHT22;7262;48.764;9.166;2022-07-05T03:28:43;15.50;99.90
14357;DHT22;7262;48.764;9.166;2022-07-05T03:31:10;15.50;99.90
14357;DHT22;7262;48.764;9.166;2022-07-05T03:33:37;15.50;99.90
14357;DHT22;7262;48.764;9.166;2022-07-05T03:36:03;15.50;99.90
14357;DHT22;7262;48.764;9.166;2022-07-05T03:38:32;15.40;99.90
14357;DHT22;7262;48.764;9.166;2022-07-05T03:40:59;15.40;99.90
14357;DHT22;7262;48.764;9.166;2022-07-05T03:43:26;15.30;99.90
14357;DHT22;7262;48.764;9.166;2022-07-05T03:45:53;15.30;99.90
14357;DHT22;7262;48.764;9.166;2022-07-05T03:48:21;15.30;99.90
14357;DHT22;7262;48.764;9.166;2022-07-05T03:50:48;15.30;99.90
14357;DHT22;7262;48.764;9.166;2022-07-05T03:53:14;15.30;99.90
14357;DHT22;7262;48.764;9.166;2022-07-05T03:55:42;15.20;99.90
14357;DHT22;7262;48.764;9.166;2022-07-05T03:58:09;15.20;99.90
14357;DHT22;7262;48.764;9.166;2022-07-05T04:00:36;15.20;99.90
14357;DHT22;7262;48.764;9.166;2022-07-05T04:03:03;15.20;99.90
14357;DHT22;7262;48.764;9.166;2022-07-05T04:05:30;15.20;99.90
14357;DHT22;7262;48.764;9.166;2022-07-05T04:07:56;15.30;99.90
14357;DHT22;7262;48.764;9.166;2022-07-05T04:10:23;15.30;99.90
14357;DHT22;7262;48.764;9.166;2022-07-05T04:12:52;15.30;99.90
14357;DHT22;7262;48.764;9.166;2022-07-05T04:15:19;15.30;99.90
14357;DHT22;7262;48.764;9.166;2022-07-05T04:17:47;15.30;99.90
14357;DHT22;7262;48.764;9.166;2022-07-05T04:20:14;15.30;99.90
14357;DHT22;7262;48.764;9.166;2022-07-05T04:22:41;15.40;99.90
14357;DHT22;7262;48.764;9.166;2022-07-05T04:25:08;15.50;99.90
14357;DHT22;7262;48.764;9.166;2022-07-05T04:27:44;15.50;99.90
14357;DHT22;7262;48.764;9.166;2022-07-05T04:30:13;15.70;99.90
14357;DHT22;7262;48.764;9.166;2022-07-05T04:32:40;15.60;99.90
14357;DHT22;7262;48.764;9.166;2022-07-05T04:35:07;15.70;99.90
14357;DHT22;7262;48.764;9.166;2022-07-05T04:37:34;15.80;99.90
14357;DHT22;7262;48.764;9.166;2022-07-05T04:40:01;15.90;99.90
14357;DHT22;7262;48.764;9.166;2022-07-05T04:42:28;16.10;99.90
14357;DHT22;7262;48.764;9.166;2022-07-05T04:44:54;16.10;99.90
14357;DHT22;7262;48.764;9.166;2022-07-05T04:47:25;16.20;99.90
14357;DHT22;7262;48.764;9.166;2022-07-05T04:49:52;16.30;99.90
14357;DHT22;7262;48.764;9.166;2022-07-05T04:52:18;16.40;99.90
14357;DHT22;7262;48.764;9.166;2022-07-05T04:54:46;16.40;99.90
14357;DHT22;7262;48.764;9.166;2022-07-05T04:57:12;16.50;99.90
14357;DHT22;7262;48.764;9.166;2022-07-05T04:59:39;16.60;99.90
14357;DHT22;7262;48.764;9.166;2022-07-05T05:02:06;16.60;99.90
14357;DHT22;7262;48.764;9.166;2022-07-05T05:04:34;16.70;99.90
14357;DHT22;7262;48.764;9.166;2022-07-05T05:07:01;16.80;99.90
14357;DHT22;7262;48.764;9.166;2022-07-05T05:09:28;17.00;99.90
14357;DHT22;7262;48.764;9.166;2022-07-05T05:11:58;17.10;99.90
14357;DHT22;7262;48.764;9.166;2022-07-05T05:14:25;17.30;99.90
14357;DHT22;7262;48.764;9.166;2022-07-05T05:16:51;17.50;99.90
14357;DHT22;7262;48.764;9.166;2022-07-05T05:19:18;17.70;99.90
14357;DHT22;7262;48.764;9.166;2022-07-05T05:21:47;17.80;99.90
14357;DHT22;7262;48.764;9.166;2022-07-05T05:24:14;17.90;99.90
14357;DHT22;7262;48.764;9.166;2022-07-05T05:26:40;18.10;99.90
14357;DHT22;7262;48.764;9.166;2022-07-05T05:29:07;18.20;99.90
14357;DHT22;7262;48.764;9.166;2022-07-05T05:31:34;18.40;99.90
14357;DHT22;7262;48.764;9.166;2022-07-05T05:34:01;18.50;99.90
14357;DHT22;7262;48.764;9.166;2022-07-05T05:36:27;18.70;99.90
14357;DHT22;7262;48.764;9.166;2022-07-05T05:38:56;19.10;99.90
14357;DHT22;7262;48.764;9.166;2022-07-05T05:41:22;20.00;99.90
14357;DHT22;7262;48.764;9.166;2022-07-05T05:43:49;21.50;99.90
14357;DHT22;7262;48.764;9.166;2022-07-05T05:46:16;23.10;99.90
14357;DHT22;7262;48.764;9.166;2022-07-05T05:48:43;24.70;99.90
14357;DHT22;7262;48.764;9.166;2022-07-05T05:51:10;25.90;99.90
14357;DHT22;7262;48.764;9.166;2022-07-05T05:53:38;27.10;99.90
14357;DHT22;7262;48.764;9.166;2022-07-05T05:56:06;27.70;99.90
14357;DHT22;7262;48.764;9.166;2022-07-05T05:58:33;28.20;99.90
14357;DHT22;7262;48.764;9.166;2022-07-05T06:00:59;28.30;99.90
14357;DHT22;7262;48.764;9.166;2022-07-05T06:03:26;28.70;99.90
14357;DHT22;7262;48.764;9.166;2022-07-05T06:05:54;28.40;99.90
14357;DHT22;7262;48.764;9.166;2022-07-05T06:08:22;29.00;99.90
14357;DHT22;7262;48.764;9.166;2022-07-05T06:10:49;29.20;99.90
14357;DHT22;7262;48.764;9.166;2022-07-05T06:13:21;30.10;99.90
14357;DHT22;7262;48.764;9.166;2022-07-05T06:15:50;30.50;99.90
14357;DHT22;7262;48.764;9.166;2022-07-05T06:18:17;30.70;99.90
14357;DHT22;7262;48.764;9.166;2022-07-05T06:20:43;30.60;99.90
14357;DHT22;7262;48.764;9.166;2022-07-05T06:23:11;31.30;99.90
14357;DHT22;7262;48.764;9.166;2022-07-05T06:25:38;32.10;98.70
14357;DHT22;7262;48.764;9.166;2022-07-05T06:28:06;31.80;98.30
14357;DHT22;7262;48.764;9.166;2022-07-05T06:30:34;30.60;98.00
14357;DHT22;7262;48.764;9.166;2022-07-05T06:33:02;30.60;99.00
14357;DHT22;7262;48.764;9.166;2022-07-05T06:35:29;30.60;97.60
14357;DHT22;7262;48.764;9.166;2022-07-05T06:37:57;30.80;97.00
14357;DHT22;7262;48.764;9.166;2022-07-05T06:40:25;32.00;95.40
14357;DHT22;7262;48.764;9.166;2022-07-05T06:42:52;32.60;94.30
14357;DHT22;7262;48.764;9.166;2022-07-05T06:45:19;32.90;93.60
14357;DHT22;7262;48.764;9.166;2022-07-05T06:47:57;32.90;92.90
14357;DHT22;7262;48.764;9.166;2022-07-05T06:50:24;31.60;93.40
14357;DHT22;7262;48.764;9.166;2022-07-05T06:52:51;30.00;96.00
14357;DHT22;7262;48.764;9.166;2022-07-05T06:55:17;29.80;96.70
14357;DHT22;7262;48.764;9.166;2022-07-05T06:57:44;30.50;95.80
14357;DHT22;7262;48.764;9.166;2022-07-05T07:00:11;31.50;93.80
14357;DHT22;7262;48.764;9.166;2022-07-05T07:02:38;32.00;93.40
14357;DHT22;7262;48.764;9.166;2022-07-05T07:05:07;32.50;92.80
14357;DHT22;7262;48.764;9.166;2022-07-05T07:07:34;32.90;91.70
14357;DHT22;7262;48.764;9.166;2022-07-05T07:10:18;32.90;91.70
14357;DHT22;7262;48.764;9.166;2022-07-05T07:12:45;33.00;90.80
14357;DHT22;7262;48.764;9.166;2022-07-05T07:15:12;32.30;91.60
14357;DHT22;7262;48.764;9.166;2022-07-05T07:17:39;31.30;91.70
14357;DHT22;7262;48.764;9.166;2022-07-05T07:20:07;31.10;91.90
14357;DHT22;7262;48.764;9.166;2022-07-05T07:22:34;31.10;92.60
14357;DHT22;7262;48.764;9.166;2022-07-05T07:25:01;31.10;93.60
14357;DHT22;7262;48.764;9.166;2022-07-05T07:27:40;31.20;92.70
14357;DHT22;7262;48.764;9.166;2022-07-05T07:30:07;31.20;92.90
14357;DHT22;7262;48.764;9.166;2022-07-05T07:35:39;33.60;90.50
14357;DHT22;7262;48.764;9.166;2022-07-05T07:38:06;33.90;89.40
14357;DHT22;7262;48.764;9.166;2022-07-05T07:40:33;33.50;89.50
14357;DHT22;7262;48.764;9.166;2022-07-05T07:43:00;34.20;87.30
14357;DHT22;7262;48.764;9.166;2022-07-05T07:45:26;32.90;89.20
14357;DHT22;7262;48.764;9.166;2022-07-05T07:47:56;32.20;89.80
14357;DHT22;7262;48.764;9.166;2022-07-05T07:50:22;32.10;90.40
14357;DHT22;7262;48.764;9.166;2022-07-05T07:52:51;31.80;90.50
14357;DHT22;7262;48.764;9.166;2022-07-05T07:55:18;30.90;91.50
14357;DHT22;7262;48.764;9.166;2022-07-05T07:57:44;32.00;90.90
14357;DHT22;7262;48.764;9.166;2022-07-05T08:00:11;32.60;90.70
14357;DHT22;7262;48.764;9.166;2022-07-05T08:02:38;33.30;90.00
14357;DHT22;7262;48.764;9.166;2022-07-05T08:05:05;33.30;89.50
14357;DHT22;7262;48.764;9.166;2022-07-05T08:07:34;32.00;90.40
14357;DHT22;7262;48.764;9.166;2022-07-05T08:10:03;32.20;90.80
14357;DHT22;7262;48.764;9.166;2022-07-05T08:12:29;32.50;90.40
14357;DHT22;7262;48.764;9.166;2022-07-05T08:14:56;31.40;90.80
14357;DHT22;7262;48.764;9.166;2022-07-05T08:17:23;31.30;91.40
14357;DHT22;7262;48.764;9.166;2022-07-05T08:19:49;32.00;90.90
14357;DHT22;7262;48.764;9.166;2022-07-05T08:22:34;31.80;90.90
14357;DHT22;7262;48.764;9.166;2022-07-05T08:25:00;31.40;91.60
14357;DHT22;7262;48.764;9.166;2022-07-05T08:27:28;31.70;91.20
14357;DHT22;7262;48.764;9.166;2022-07-05T08:29:55;31.60;91.00
14357;DHT22;7262;48.764;9.166;2022-07-05T08:32:22;31.90;90.30
14357;DHT22;7262;48.764;9.166;2022-07-05T08:34:49;32.20;90.90
14357;DHT22;7262;48.764;9.166;2022-07-05T08:37:16;32.90;90.20
14357;DHT22;7262;48.764;9.166;2022-07-05T08:39:43;33.20;89.50
14357;DHT22;7262;48.764;9.166;2022-07-05T08:42:11;32.80;90.30
14357;DHT22;7262;48.764;9.166;2022-07-05T08:44:42;32.50;90.30
14357;DHT22;7262;48.764;9.166;2022-07-05T08:47:10;33.20;89.40
14357;DHT22;7262;48.764;9.166;2022-07-05T08:49:37;33.10;89.10
14357;DHT22;7262;48.764;9.166;2022-07-05T08:52:07;33.40;89.10
14357;DHT22;7262;48.764;9.166;2022-07-05T08:54:35;33.50;88.30
14357;DHT22;7262;48.764;9.166;2022-07-05T08:57:03;34.20;86.90
14357;DHT22;7262;48.764;9.166;2022-07-05T08:59:37;34.90;85.60
14357;DHT22;7262;48.764;9.166;2022-07-05T09:02:05;34.90;83.70
14357;DHT22;7262;48.764;9.166;2022-07-05T09:04:35;34.60;84.40
14357;DHT22;7262;48.764;9.166;2022-07-05T09:07:04;34.60;84.90
14357;DHT22;7262;48.764;9.166;2022-07-05T09:09:33;34.60;82.90
14357;DHT22;7262;48.764;9.166;2022-07-05T09:12:04;34.80;83.70
14357;DHT22;7262;48.764;9.166;2022-07-05T09:14:31;34.10;84.30
14357;DHT22;7262;48.764;9.166;2022-07-05T09:16:57;33.70;84.10
14357;DHT22;7262;48.764;9.166;2022-07-05T09:19:26;33.60;85.40
14357;DHT22;7262;48.764;9.166;2022-07-05T09:22:00;34.10;85.00
14357;DHT22;7262;48.764;9.166;2022-07-05T09:24:27;34.20;87.10
14357;DHT22;7262;48.764;9.166;2022-07-05T09:27:03;34.00;81.70
14357;DHT22;7262;48.764;9.166;2022-07-05T09:29:30;33.40;84.00
14357;DHT22;7262;48.764;9.166;2022-07-05T09:31:57;33.30;83.30
14357;DHT22;7262;48.764;9.166;2022-07-05T09:34:24;33.00;84.00
14357;DHT22;7262;48.764;9.166;2022-07-05T09:36:55;32.60;83.80
14357;DHT22;7262;48.764;9.166;2022-07-05T09:39:34;33.20;83.40
14357;DHT22;7262;48.764;9.166;2022-07-05T09:42:13;32.80;83.70
14357;DHT22;7262;48.764;9.166;2022-07-05T09:44:51;33.50;83.80
14357;DHT22;7262;48.764;9.166;2022-07-05T09:47:20;33.80;81.70
14357;DHT22;7262;48.764;9.166;2022-07-05T09:50:07;33.70;82.50
14357;DHT22;7262;48.764;9.166;2022-07-05T09:52:37;33.60;83.20
14357;DHT22;7262;48.764;9.166;2022-07-05T09:55:04;33.30;80.00
14357;DHT22;7262;48.764;9.166;2022-07-05T09:57:31;33.00;80.20
14357;DHT22;7262;48.764;9.166;2022-07-05T09:59:59;32.70;81.80
14357;DHT22;7262;48.764;9.166;2022-07-05T10:02:36;31.80;84.30
14357;DHT22;7262;48.764;9.166;2022-07-05T10:05:10;32.20;82.80
14357;DHT22;7262;48.764;9.166;2022-07-05T10:07:39;32.00;79.00
14357;DHT22;7262;48.764;9.166;2022-07-05T10:10:07;31.70;80.30
14357;DHT22;7262;48.764;9.166;2022-07-05T10:12:36;32.20;79.50
14357;DHT22;7262;48.764;9.166;2022-07-05T10:15:04;32.10;80.90
14357;DHT22;7262;48.764;9.166;2022-07-05T10:17:31;32.40;79.40
14357;DHT22;7262;48.764;9.166;2022-07-05T10:20:01;32.50;79.30
14357;DHT22;7262;48.764;9.166;2022-07-05T10:22:29;31.80;81.80
14357;DHT22;7262;48.764;9.166;2022-07-05T10:24:57;32.50;79.80
14357;DHT22;7262;48.764;9.166;2022-07-05T10:27:26;32.70;80.70
14357;DHT22;7262;48.764;9.166;2022-07-05T10:29:54;32.60;80.30
14357;DHT22;7262;48.764;9.166;2022-07-05T10:32:23;32.40;80.00
14357;DHT22;7262;48.764;9.166;2022-07-05T10:34:49;31.10;83.70
14357;DHT22;7262;48.764;9.166;2022-07-05T10:37:17;30.50;82.20
14357;DHT22;7262;48.764;9.166;2022-07-05T10:39:45;31.00;83.10
14357;DHT22;7262;48.764;9.166;2022-07-05T10:42:13;31.60;81.80
14357;DHT22;7262;48.764;9.166;2022-07-05T10:44:40;31.50;82.40
14357;DHT22;7262;48.764;9.166;2022-07-05T10:47:07;31.50;82.30
14357;DHT22;7262;48.764;9.166;2022-07-05T10:49:38;31.50;81.10
14357;DHT22;7262;48.764;9.166;2022-07-05T10:52:06;31.80;79.60
14357;DHT22;7262;48.764;9.166;2022-07-05T10:57:31;32.70;79.00
14357;DHT22;7262;48.764;9.166;2022-07-05T11:00:04;32.80;78.90
14357;DHT22;7262;48.764;9.166;2022-07-05T11:02:31;32.60;78.50
14357;DHT22;7262;48.764;9.166;2022-07-05T11:04:58;33.00;79.40
14357;DHT22;7262;48.764;9.166;2022-07-05T11:18:31;32.50;76.80
14357;DHT22;7262;48.764;9.166;2022-07-05T11:21:10;32.80;78.20
14357;DHT22;7262;48.764;9.166;2022-07-05T11:23:42;32.80;78.60
14357;DHT22;7262;48.764;9.166;2022-07-05T11:26:08;31.90;79.00
14357;DHT22;7262;48.764;9.166;2022-07-05T11:28:40;31.20;80.00
14357;DHT22;7262;48.764;9.166;2022-07-05T11:31:08;30.50;82.70
14357;DHT22;7262;48.764;9.166;2022-07-05T11:33:37;30.00;83.40
14357;DHT22;7262;48.764;9.166;2022-07-05T11:36:05;29.40;83.90
14357;DHT22;7262;48.764;9.166;2022-07-05T11:38:34;28.70;85.70
14357;DHT22;7262;48.764;9.166;2022-07-05T11:41:13;29.40;85.20
14357;DHT22;7262;48.764;9.166;2022-07-05T11:43:40;30.50;85.50
14357;DHT22;7262;48.764;9.166;2022-07-05T11:46:07;31.70;83.80
14357;DHT22;7262;48.764;9.166;2022-07-05T11:48:34;32.10;81.60
14357;DHT22;7262;48.764;9.166;2022-07-05T11:51:13;32.20;80.40
14357;DHT22;7262;48.764;9.166;2022-07-05T11:53:39;32.20;80.20
14357;DHT22;7262;48.764;9.166;2022-07-05T11:56:06;32.30;80.00
14357;DHT22;7262;48.764;9.166;2022-07-05T11:58:35;32.50;80.40
14357;DHT22;7262;48.764;9.166;2022-07-05T12:01:01;32.50;80.50
14357;DHT22;7262;48.764;9.166;2022-07-05T12:03:28;33.00;80.40
14357;DHT22;7262;48.764;9.166;2022-07-05T12:05:55;32.30;80.30
14357;DHT22;7262;48.764;9.166;2022-07-05T12:08:23;32.70;82.00
14357;DHT22;7262;48.764;9.166;2022-07-05T12:10:50;31.90;80.70
14357;DHT22;7262;48.764;9.166;2022-07-05T12:13:45;32.40;79.50
14357;DHT22;7262;48.764;9.166;2022-07-05T12:16:12;32.30;79.20
14357;DHT22;7262;48.764;9.166;2022-07-05T12:18:46;32.50;80.40
14357;DHT22;7262;48.764;9.166;2022-07-05T12:21:13;33.20;79.00
14357;DHT22;7262;48.764;9.166;2022-07-05T12:23:42;33.10;80.00
14357;DHT22;7262;48.764;9.166;2022-07-05T12:26:10;33.10;80.10
14357;DHT22;7262;48.764;9.166;2022-07-05T12:28:37;32.60;79.30
14357;DHT22;7262;48.764;9.166;2022-07-05T12:31:14;31.10;82.20
14357;DHT22;7262;48.764;9.166;2022-07-05T12:33:41;30.70;83.20
14357;DHT22;7262;48.764;9.166;2022-07-05T12:36:10;31.60;82.10
14357;DHT22;7262;48.764;9.166;2022-07-05T12:38:37;32.50;81.10
14357;DHT22;7262;48.764;9.166;2022-07-05T12:41:05;33.40;80.40
14357;DHT22;7262;48.764;9.166;2022-07-05T12:43:32;33.30;78.30
14357;DHT22;7262;48.764;9.166;2022-07-05T12:46:00;32.60;80.60
14357;DHT22;7262;48.764;9.166;2022-07-05T12:48:30;33.10;80.20
14357;DHT22;7262;48.764;9.166;2022-07-05T12:50:57;33.60;81.30
14357;DHT22;7262;48.764;9.166;2022-07-05T12:53:24;33.30;80.20
14357;DHT22;7262;48.764;9.166;2022-07-05T12:56:13;32.50;80.80
14357;DHT22;7262;48.764;9.166;2022-07-05T12:58:58;32.40;82.70
14357;DHT22;7262;48.764;9.166;2022-07-05T13:01:26;32.00;81.50
14357;DHT22;7262;48.764;9.166;2022-07-05T13:03:57;32.80;81.50
14357;DHT22;7262;48.764;9.166;2022-07-05T13:06:38;33.20;79.30
14357;DHT22;7262;48.764;9.166;2022-07-05T13:09:06;32.60;80.20
14357;DHT22;7262;48.764;9.166;2022-07-05T13:11:34;32.50;80.50
14357;DHT22;7262;48.764;9.166;2022-07-05T13:14:01;32.70;80.50
14357;DHT22;7262;48.764;9.166;2022-07-05T13:16:28;34.00;78.70
14357;DHT22;7262;48.764;9.166;2022-07-05T13:18:55;34.70;77.30
14357;DHT22;7262;48.764;9.166;2022-07-05T13:21:21;35.40;75.60
14357;DHT22;7262;48.764;9.166;2022-07-05T13:23:48;35.90;74.90
14357;DHT22;7262;48.764;9.166;2022-07-05T13:26:15;35.70;75.50
14357;DHT22;7262;48.764;9.166;2022-07-05T13:28:45;35.20;74.60
14357;DHT22;7262;48.764;9.166;2022-07-05T13:31:12;35.10;75.00
14357;DHT22;7262;48.764;9.166;2022-07-05T13:33:39;35.20;75.20
14357;DHT22;7262;48.764;9.166;2022-07-05T13:36:06;34.30;76.10
14357;DHT22;7262;48.764;9.166;2022-07-05T13:38:34;34.80;76.40
14357;DHT22;7262;48.764;9.166;2022-07-05T13:41:01;33.30;77.20
14357;DHT22;7262;48.764;9.166;2022-07-05T13:43:27;31.60;79.50
14357;DHT22;7262;48.764;9.166;2022-07-05T13:45:56;30.90;81.40
14357;DHT22;7262;48.764;9.166;2022-07-05T13:48:22;31.20;81.90
14357;DHT22;7262;48.764;9.166;2022-07-05T13:50:49;31.40;82.10
14357;DHT22;7262;48.764;9.166;2022-07-05T13:53:16;32.30;80.10
14357;DHT22;7262;48.764;9.166;2022-07-05T13:55:45;33.00;80.30
14357;DHT22;7262;48.764;9.166;2022-07-05T13:58:12;33.60;77.30
14357;DHT22;7262;48.764;9.166;2022-07-05T14:00:39;33.70;78.60
14357;DHT22;7262;48.764;9.166;2022-07-05T14:03:08;34.10;78.10
14357;DHT22;7262;48.764;9.166;2022-07-05T14:05:35;34.10;76.30
14357;DHT22;7262;48.764;9.166;2022-07-05T14:08:01;32.70;77.80
14357;DHT22;7262;48.764;9.166;2022-07-05T14:10:28;31.60;78.80
14357;DHT22;7262;48.764;9.166;2022-07-05T14:12:55;31.10;81.40
14357;DHT22;7262;48.764;9.166;2022-07-05T14:15:22;30.70;81.60
14357;DHT22;7262;48.764;9.166;2022-07-05T14:17:49;30.60;83.40
14357;DHT22;7262;48.764;9.166;2022-07-05T14:20:17;31.30;81.90
14357;DHT22;7262;48.764;9.166;2022-07-05T14:22:43;31.60;80.50
14357;DHT22;7262;48.764;9.166;2022-07-05T14:25:12;31.90;83.90
14357;DHT22;7262;48.764;9.166;2022-07-05T14:27:39;32.30;79.50
14357;DHT22;7262;48.764;9.166;2022-07-05T14:30:08;32.50;78.90
14357;DHT22;7262;48.764;9.166;2022-07-05T14:32:36;32.70;78.00
14357;DHT22;7262;48.764;9.166;2022-07-05T14:35:03;32.00;79.00
14357;DHT22;7262;48.764;9.166;2022-07-05T14:37:31;31.00;80.10
14357;DHT22;7262;48.764;9.166;2022-07-05T14:39:58;30.80;81.50
14357;DHT22;7262;48.764;9.166;2022-07-05T14:42:25;30.40;81.20
14357;DHT22;7262;48.764;9.166;2022-07-05T14:44:52;30.30;81.60
14357;DHT22;7262;48.764;9.166;2022-07-05T14:47:18;30.20;82.50
14357;DHT22;7262;48.764;9.166;2022-07-05T14:49:45;30.30;81.80
14357;DHT22;7262;48.764;9.166;2022-07-05T14:52:12;29.90;83.80
14357;DHT22;7262;48.764;9.166;2022-07-05T14:54:40;29.60;83.00
14357;DHT22;7262;48.764;9.166;2022-07-05T14:57:06;29.30;83.30
14357;DHT22;7262;48.764;9.166;2022-07-05T14:59:33;29.20;83.60
14357;DHT22;7262;48.764;9.166;2022-07-05T15:02:00;29.10;83.80
14357;DHT22;7262;48.764;9.166;2022-07-05T15:04:27;28.80;84.90
14357;DHT22;7262;48.764;9.166;2022-07-05T15:06:53;28.60;85.00
14357;DHT22;7262;48.764;9.166;2022-07-05T15:09:20;28.40;84.80
14357;DHT22;7262;48.764;9.166;2022-07-05T15:11:51;28.20;86.70
14357;DHT22;7262;48.764;9.166;2022-07-05T15:14:18;27.90;87.10
14357;DHT22;7262;48.764;9.166;2022-07-05T15:16:45;27.60;87.60
14357;DHT22;7262;48.764;9.166;2022-07-05T15:19:12;27.50;88.50
14357;DHT22;7262;48.764;9.166;2022-07-05T15:21:38;27.40;88.10
14357;DHT22;7262;48.764;9.166;2022-07-05T15:24:06;27.40;88.00
14357;DHT22;7262;48.764;9.166;2022-07-05T15:26:32;27.70;87.50
14357;DHT22;7262;48.764;9.166;2022-07-05T15:29:03;28.00;87.60
14357;DHT22;7262;48.764;9.166;2022-07-05T15:31:30;28.40;87.40
14357;DHT22;7262;48.764;9.166;2022-07-05T15:33:58;28.30;86.80
14357;DHT22;7262;48.764;9.166;2022-07-05T15:36:26;28.20;86.80
14357;DHT22;7262;48.764;9.166;2022-07-05T15:38:53;28.10;86.70
14357;DHT22;7262;48.764;9.166;2022-07-05T15:41:20;28.30;87.90
14357;DHT22;7262;48.764;9.166;2022-07-05T15:43:46;28.10;86.90
14357;DHT22;7262;48.764;9.166;2022-07-05T15:46:18;27.90;88.20
14357;DHT22;7262;48.764;9.166;2022-07-05T15:48:44;27.80;88.50
14357;DHT22;7262;48.764;9.166;2022-07-05T15:51:13;27.70;89.20
14357;DHT22;7262;48.764;9.166;2022-07-05T15:53:41;27.50;88.30
14357;DHT22;7262;48.764;9.166;2022-07-05T15:56:08;27.60;89.10
14357;DHT22;7262;48.764;9.166;2022-07-05T15:58:35;27.70;88.70
14357;DHT22;7262;48.764;9.166;2022-07-05T16:01:03;27.90;87.50
14357;DHT22;7262;48.764;9.166;2022-07-05T16:03:31;28.00;87.50
14357;DHT22;7262;48.764;9.166;2022-07-05T16:05:58;28.10;86.60
14357;DHT22;7262;48.764;9.166;2022-07-05T16:08:25;28.00;86.40